Date,TemperatureHighF,TemperatureAvgF,TemperatureLowF,DewpointHighF,DewpointAvgF,DewpointLowF,HumidityHigh,HumidityAvg,HumidityLow,PressureMaxIn,PressureMinIn,WindSpeedMaxMPH,WindSpeedAvgMPH,GustSpeedMaxMPH,PrecipitationSumIn
2013-1-3,39.6,30.0,15.7,28.0,22.7,13.3,94,75,55,30.43,30.31,14,2,15,0.02
2013-1-4,39.4,30.4,23.0,27.8,24.4,20.5,99,79,60,30.46,30.39,20,2,22,0.00
2013-1-5,44.5,31.6,18.8,32.8,25.5,16.6,94,79,57,30.42,30.23,14,2,14,0.01
2013-1-6,39.4,34.6,22.2,34.0,28.4,19.1,88,78,71,30.43,30.13,18,4,21,0.00
2013-1-7,45.6,28.7,16.4,30.6,22.5,14.0,93,79,53,30.51,30.28,11,1,11,0.00
2013-1-8,55.9,35.7,20.7,38.4,28.7,18.5,94,78,50,30.36,30.25,17,2,17,0.00
2013-1-9,59.1,44.7,32.6,48.5,40.0,30.0,93,84,61,30.53,30.25,9,1,11,0.02
2013-1-10,36.1,35.8,35.5,34.4,34.1,33.7,94,94,93,30.52,30.50,2,0,3,0.00
2013-1-12,67.5,63.8,57.0,63.7,61.3,55.5,96,92,86,30.02,29.76,20,4,21,0.03
2013-1-13,67.6,47.8,30.1,62.4,46.1,27.0,99,94,81,30.23,29.72,31,4,31,2.09
2013-1-14,30.8,27.0,23.4,27.1,22.2,19.5,88,82,73,30.49,30.23,14,3,14,0.00
2013-1-15,31.2,28.0,21.6,29.0,24.2,19.1,93,86,78,30.39,30.10,19,2,19,0.00
2013-1-16,33.4,31.1,29.7,30.4,28.7,27.6,93,91,86,30.17,30.05,11,1,11,0.04
2013-1-17,46.6,34.8,26.6,37.0,28.9,22.4,94,80,56,30.46,30.15,17,2,19,0.18
2013-1-18,46.6,31.5,19.1,30.0,23.9,16.9,94,75,50,30.58,30.32,15,2,15,0.02
2013-1-19,56.9,45.5,37.1,34.2,30.4,27.2,69,56,39,30.33,30.01,25,8,25,0.00
2013-1-20,48.3,37.6,23.7,35.9,21.4,13.4,78,53,32,30.29,30.05,18,4,19,0.00
2013-1-21,28.6,23.6,14.5,18.3,11.2,3.1,78,60,39,30.35,30.20,21,4,23,0.00
2013-1-22,22.5,15.5,9.6,6.1,1.9,-1.9,69,55,41,30.49,30.34,15,3,17,0.00
2013-1-23,36.6,20.5,12.5,19.2,10.4,4.1,92,66,45,30.44,30.22,15,2,15,0.00
2013-1-29,66.3,65.6,65.0,61.1,60.4,59.9,84,83,82,29.72,29.55,28,12,29,0.00
2013-1-30,69.6,50.0,31.4,63.1,46.1,25.1,96,86,75,29.74,29.33,33,8,35,1.30
2013-1-31,35.1,30.0,25.5,27.7,22.0,18.5,92,72,60,30.04,29.74,26,6,26,0.00